createdAt,value
2022-11-22T00:00:17.468Z,5.70
2022-11-22T00:02:44.440Z,5.68
2022-11-22T00:05:11.742Z,5.20
2022-11-22T00:07:38.784Z,5.72
2022-11-22T00:10:07.014Z,5.68
2022-11-22T00:12:33.598Z,6.47
2022-11-22T00:15:00.173Z,4.15
2022-11-22T00:17:26.765Z,5.18
2022-11-22T00:19:53.312Z,4.45
2022-11-22T00:22:19.831Z,6.70
2022-11-22T00:24:46.389Z,5.57
2022-11-22T00:27:12.921Z,6.53
2022-11-22T00:29:39.441Z,5.57
2022-11-22T00:32:06.031Z,7.18
2022-11-22T00:34:32.564Z,5.78
2022-11-22T00:36:59.114Z,7.22
2022-11-22T00:39:25.680Z,6.55
2022-11-22T00:41:52.186Z,6.32
2022-11-22T00:44:18.727Z,5.65
2022-11-22T00:46:45.281Z,5.97
2022-11-22T00:49:11.919Z,5.90
2022-11-22T00:51:38.549Z,7.90
2022-11-22T00:54:05.257Z,6.90
2022-11-22T00:56:32.116Z,7.88
2022-11-22T00:58:59.062Z,5.78
2022-11-22T01:01:25.737Z,9.45
2022-11-22T01:03:52.281Z,10.00
2022-11-22T01:06:19.449Z,8.07
2022-11-22T01:08:45.965Z,7.65
2022-11-22T01:11:15.317Z,7.35
2022-11-22T01:13:41.873Z,7.32
2022-11-22T01:16:10.436Z,6.07
2022-11-22T01:18:37.767Z,7.40
2022-11-22T01:21:05.986Z,6.45
2022-11-22T01:23:33.637Z,6.50
2022-11-22T01:26:00.420Z,5.97
2022-11-22T01:28:27.575Z,5.53
2022-11-22T01:30:54.802Z,4.63
2022-11-22T01:33:21.708Z,5.65
2022-11-22T01:35:48.588Z,7.15
2022-11-22T01:38:15.141Z,6.35
2022-11-22T01:40:42.061Z,5.38
2022-11-22T01:43:20.905Z,4.80
2022-11-22T01:45:55.297Z,4.40
2022-11-22T01:48:25.453Z,6.03
2022-11-22T01:50:59.276Z,5.03
2022-11-22T01:55:57.325Z,4.88
2022-11-22T01:58:24.964Z,5.57
2022-11-22T02:00:53.426Z,6.10
2022-11-22T02:03:21.740Z,5.35
2022-11-22T02:05:50.173Z,5.57
2022-11-22T02:08:37.852Z,6.20
2022-11-22T02:11:05.664Z,5.15
2022-11-22T02:13:36.126Z,5.47
2022-11-22T02:16:04.288Z,5.65
2022-11-22T02:18:31.109Z,5.13
2022-11-22T02:20:58.595Z,5.22
2022-11-22T02:23:37.315Z,5.13
2022-11-22T02:26:04.170Z,5.38
2022-11-22T02:28:34.756Z,6.25
2022-11-22T02:31:01.285Z,6.88
2022-11-22T02:33:27.821Z,5.22
2022-11-22T02:35:55.156Z,5.90
2022-11-22T02:38:26.086Z,5.03
2022-11-22T02:40:57.052Z,6.50
2022-11-22T02:43:46.592Z,6.55
2022-11-22T02:46:20.465Z,5.15
2022-11-22T02:48:47.954Z,6.30
2022-11-22T02:51:17.079Z,8.00
2022-11-22T02:53:44.631Z,6.55
2022-11-22T02:56:11.221Z,6.80
2022-11-22T02:58:38.019Z,6.25
2022-11-22T03:01:04.879Z,5.60
2022-11-22T03:03:32.896Z,6.07
2022-11-22T03:05:59.563Z,6.22
2022-11-22T03:08:26.075Z,6.05
2022-11-22T03:10:52.580Z,6.25
2022-11-22T03:13:19.131Z,6.60
2022-11-22T03:15:47.588Z,5.75
2022-11-22T03:18:14.071Z,5.70
2022-11-22T03:20:40.610Z,6.53
2022-11-22T03:23:07.208Z,6.78
2022-11-22T03:25:37.979Z,5.25
2022-11-22T03:28:04.673Z,5.80
2022-11-22T03:30:31.240Z,5.68
2022-11-22T03:32:57.776Z,6.30
2022-11-22T03:35:24.317Z,6.07
2022-11-22T03:37:50.876Z,5.28
2022-11-22T03:40:17.379Z,5.22
2022-11-22T03:42:43.923Z,5.55
2022-11-22T03:45:10.848Z,7.07
2022-11-22T03:47:37.368Z,6.68
2022-11-22T03:50:05.092Z,7.13
2022-11-22T03:52:31.602Z,6.93
2022-11-22T03:54:58.101Z,5.10
2022-11-22T03:57:24.664Z,6.30
2022-11-22T03:59:51.150Z,5.72
2022-11-22T04:02:17.652Z,5.32
2022-11-22T04:04:44.170Z,4.60
2022-11-22T04:07:10.734Z,4.53
2022-11-22T04:09:37.343Z,5.55
2022-11-22T04:12:04.113Z,5.35
2022-11-22T04:14:48.912Z,5.13
2022-11-22T04:17:35.354Z,6.50
2022-11-22T04:20:21.812Z,6.95
2022-11-22T04:23:09.139Z,5.03
2022-11-22T04:25:37.896Z,5.22
2022-11-22T04:28:06.557Z,6.47
2022-11-22T04:30:52.452Z,4.55
2022-11-22T04:33:19.079Z,6.63
2022-11-22T04:35:46.268Z,5.72
2022-11-22T04:38:13.654Z,4.55
2022-11-22T04:40:40.556Z,4.63
2022-11-22T04:43:26.377Z,5.53
2022-11-22T04:45:52.996Z,4.50
2022-11-22T04:48:19.766Z,4.93
2022-11-22T04:51:05.144Z,4.68
2022-11-22T04:53:31.695Z,4.72
2022-11-22T04:55:58.290Z,5.80
2022-11-22T04:58:24.867Z,5.25
2022-11-22T05:00:51.911Z,4.90
2022-11-22T05:03:18.700Z,5.28
2022-11-22T05:05:45.555Z,8.02
2022-11-22T05:08:12.829Z,6.93
2022-11-22T05:10:58.250Z,6.97
2022-11-22T05:13:26.444Z,5.78
2022-11-22T05:15:54.024Z,5.55
2022-11-22T05:18:21.805Z,7.65
2022-11-22T05:20:48.476Z,7.70
2022-11-22T05:23:34.116Z,6.57
2022-11-22T05:26:00.688Z,5.95
2022-11-22T05:28:32.589Z,6.53
2022-11-22T05:30:59.392Z,6.85
2022-11-22T05:33:25.954Z,7.13
2022-11-22T05:35:52.476Z,5.72
2022-11-22T05:38:19.042Z,6.15
2022-11-22T05:40:45.612Z,6.95
2022-11-22T05:43:12.128Z,7.40
2022-11-22T05:45:38.665Z,7.22
2022-11-22T05:48:05.330Z,6.70
2022-11-22T05:50:31.838Z,6.03
2022-11-22T05:53:02.911Z,7.18
2022-11-22T05:55:30.648Z,8.25
2022-11-22T05:58:01.463Z,6.95
2022-11-22T06:00:29.818Z,5.43
2022-11-22T06:03:04.159Z,5.40
2022-11-22T06:05:31.123Z,7.65
2022-11-22T06:08:00.109Z,7.18
2022-11-22T06:10:27.242Z,7.15
2022-11-22T06:12:54.204Z,6.78
2022-11-22T06:15:21.948Z,5.50
2022-11-22T06:17:48.517Z,7.43
2022-11-22T06:20:15.550Z,7.68
2022-11-22T06:22:42.185Z,5.47
2022-11-22T06:25:09.528Z,7.10
2022-11-22T06:27:36.078Z,6.35
2022-11-22T06:30:02.596Z,5.70
2022-11-22T06:32:32.629Z,6.53
2022-11-22T06:34:59.160Z,5.78
2022-11-22T06:37:25.717Z,7.03
2022-11-22T06:39:52.264Z,7.28
2022-11-22T06:42:18.792Z,7.88
2022-11-22T06:44:45.309Z,7.45
2022-11-22T06:47:11.885Z,5.88
2022-11-22T06:49:38.394Z,7.47
2022-11-22T06:52:05.294Z,7.13
2022-11-22T06:54:31.802Z,8.00
2022-11-22T06:56:58.329Z,7.80
2022-11-22T06:59:24.840Z,7.75
2022-11-22T07:01:51.568Z,7.30
2022-11-22T07:04:18.144Z,6.78
2022-11-22T07:06:44.701Z,8.00
2022-11-22T07:09:11.734Z,8.10
2022-11-22T07:11:40.323Z,7.40
2022-11-22T07:14:08.807Z,7.78
2022-11-22T07:16:37.424Z,7.43
2022-11-22T07:19:04.863Z,8.32
2022-11-22T07:21:32.453Z,8.23
2022-11-22T07:23:59.019Z,8.23
2022-11-22T07:26:26.363Z,8.57
2022-11-22T07:28:52.901Z,7.97
2022-11-22T07:31:19.602Z,7.25
2022-11-22T07:33:46.345Z,9.07
2022-11-22T07:36:18.228Z,7.05
2022-11-22T07:38:45.649Z,6.68
2022-11-22T07:41:13.135Z,8.25
2022-11-22T07:43:40.073Z,8.40
2022-11-22T07:46:18.378Z,6.97
2022-11-22T07:48:44.866Z,7.82
2022-11-22T07:51:11.477Z,8.75
2022-11-22T07:53:37.996Z,8.65
2022-11-22T07:56:05.985Z,8.25
2022-11-22T07:58:33.853Z,9.80
2022-11-22T08:01:11.317Z,9.23
2022-11-22T08:03:38.949Z,7.97
2022-11-22T08:06:08.531Z,10.07
2022-11-22T08:08:36.289Z,7.05
2022-11-22T08:11:03.238Z,8.55
2022-11-22T08:13:30.981Z,8.80
2022-11-22T08:16:06.132Z,7.88
2022-11-22T08:18:33.704Z,7.13
2022-11-22T08:21:09.072Z,7.15
2022-11-22T08:23:36.403Z,7.07
2022-11-22T08:26:03.382Z,9.50
2022-11-22T08:28:30.348Z,8.30
2022-11-22T08:31:02.692Z,7.60
2022-11-22T08:33:29.295Z,8.68
2022-11-22T08:35:55.850Z,8.70
2022-11-22T08:38:22.358Z,7.60
2022-11-22T08:40:48.907Z,10.07
2022-11-22T08:43:15.484Z,7.43
2022-11-22T08:45:42.060Z,8.60
2022-11-22T08:48:08.617Z,8.98
2022-11-22T08:50:35.155Z,7.53
2022-11-22T08:53:01.950Z,10.38
2022-11-22T08:55:28.544Z,10.23
2022-11-22T08:57:59.055Z,7.75
2022-11-22T09:00:31.736Z,6.82
2022-11-22T09:02:59.832Z,9.77
2022-11-22T09:05:26.610Z,8.65
2022-11-22T09:10:39.868Z,7.40
2022-11-22T09:13:06.484Z,5.72
2022-11-22T09:15:33.084Z,8.07
2022-11-22T09:18:03.608Z,7.47
2022-11-22T09:20:30.323Z,6.43
2022-11-22T09:22:56.869Z,9.32
2022-11-22T09:25:23.380Z,9.30
2022-11-22T09:27:50.065Z,6.55
2022-11-22T09:30:16.786Z,6.65
2022-11-22T09:32:44.864Z,7.88
2022-11-22T09:35:11.472Z,7.53
2022-11-22T09:37:37.977Z,7.90
2022-11-22T09:40:05.041Z,6.97
2022-11-22T09:42:47.463Z,6.63
2022-11-22T09:45:35.290Z,8.13
2022-11-22T09:48:09.885Z,4.75
2022-11-22T09:51:09.496Z,6.05
2022-11-22T09:53:48.342Z,6.25
2022-11-22T09:56:21.520Z,8.00
2022-11-22T09:59:11.633Z,6.80
2022-11-22T10:01:48.651Z,7.65
2022-11-22T10:04:24.859Z,6.85
2022-11-22T10:06:59.297Z,6.32
2022-11-22T10:09:26.482Z,7.50
2022-11-22T10:12:15.525Z,6.03
2022-11-22T10:14:58.709Z,6.82
2022-11-22T10:17:48.002Z,6.20
2022-11-22T10:20:23.534Z,6.22
2022-11-22T10:22:50.754Z,5.70
2022-11-22T10:25:20.617Z,7.10
2022-11-22T10:28:00.801Z,7.28
2022-11-22T10:30:35.858Z,5.95
2022-11-22T10:33:21.774Z,7.18
2022-11-22T10:36:13.131Z,8.82
2022-11-22T10:39:34.103Z,7.78
2022-11-22T10:42:19.683Z,9.07
2022-11-22T10:45:11.692Z,7.72
2022-11-22T10:48:15.127Z,9.13
2022-11-22T10:50:44.468Z,8.50
2022-11-22T10:53:48.394Z,8.70
2022-11-22T10:56:30.259Z,8.30
2022-11-22T10:59:18.100Z,8.30
2022-11-22T11:01:53.576Z,8.45
2022-11-22T11:04:21.167Z,7.85
2022-11-22T11:12:44.605Z,9.50
2022-11-22T11:15:37.702Z,9.13
2022-11-22T11:18:11.808Z,9.95
2022-11-22T11:20:41.840Z,8.65
2022-11-22T11:23:15.149Z,9.57
2022-11-22T11:25:47.443Z,9.30
2022-11-22T11:28:19.462Z,11.48
2022-11-22T11:30:50.967Z,8.65
2022-11-22T11:33:26.668Z,10.32
2022-11-22T11:35:57.043Z,8.63
2022-11-22T11:38:41.583Z,8.55
2022-11-22T11:41:30.596Z,7.00
2022-11-22T11:43:59.624Z,8.90
2022-11-22T11:46:28.950Z,8.80
2022-11-22T11:49:17.641Z,8.52
2022-11-22T11:51:45.255Z,7.72
2022-11-22T11:54:18.727Z,10.30
2022-11-22T11:56:59.578Z,7.55
2022-11-22T11:59:38.026Z,8.93
2022-11-22T12:02:18.096Z,9.68
2022-11-22T12:05:01.411Z,7.78
2022-11-22T12:07:34.068Z,6.80
2022-11-22T12:10:02.388Z,6.50
2022-11-22T12:12:50.865Z,7.35
2022-11-22T12:15:35.510Z,8.75
2022-11-22T12:18:28.131Z,7.90
2022-11-22T12:21:11.846Z,6.47
2022-11-22T12:23:50.883Z,7.00
2022-11-22T12:26:18.595Z,7.35
2022-11-22T12:28:45.184Z,7.07
2022-11-22T12:31:37.226Z,7.68
2022-11-22T12:34:37.959Z,7.55
2022-11-22T12:37:16.927Z,7.43
2022-11-22T12:39:47.643Z,7.20
2022-11-22T12:42:23.450Z,8.50
2022-11-22T12:45:13.827Z,5.78
2022-11-22T12:47:43.596Z,6.45
2022-11-22T12:50:25.832Z,7.90
2022-11-22T12:53:02.765Z,6.68
2022-11-22T12:55:59.110Z,7.22
2022-11-22T12:58:40.671Z,7.10
2022-11-22T13:01:28.931Z,7.63
2022-11-22T13:04:15.621Z,8.00
2022-11-22T13:07:05.520Z,5.82
2022-11-22T13:09:36.292Z,6.13
2022-11-22T13:12:12.169Z,6.30
2022-11-22T13:14:41.551Z,8.43
2022-11-22T13:17:13.107Z,8.18
2022-11-22T13:20:03.138Z,8.93
2022-11-22T13:22:44.726Z,8.93
2022-11-22T13:25:31.983Z,8.45
2022-11-22T13:28:02.453Z,8.15
2022-11-22T13:30:30.714Z,8.18
2022-11-22T13:32:59.927Z,6.70
2022-11-22T13:35:39.055Z,9.82
2022-11-22T13:38:13.658Z,9.93
2022-11-22T13:40:43.586Z,14.05
2022-11-22T13:43:18.006Z,7.43
2022-11-22T13:45:51.852Z,8.60
2022-11-22T13:48:40.040Z,9.10
2022-11-22T13:51:14.894Z,7.57
2022-11-22T13:53:43.988Z,8.55
2022-11-22T13:56:16.709Z,9.40
2022-11-22T13:58:50.709Z,11.13
2022-11-22T14:01:36.079Z,9.43
2022-11-22T14:04:21.095Z,10.23
2022-11-22T14:06:53.730Z,9.25
2022-11-22T14:09:50.584Z,11.52
2022-11-22T14:12:32.009Z,7.63
2022-11-22T14:15:17.305Z,11.85
2022-11-22T14:17:49.863Z,12.80
2022-11-22T14:20:35.110Z,9.18
2022-11-22T14:23:16.832Z,7.95
2022-11-22T14:26:04.408Z,9.15
2022-11-22T14:29:12.869Z,8.32
2022-11-22T14:31:40.561Z,7.50
2022-11-22T14:34:23.657Z,7.70
2022-11-22T14:37:34.485Z,9.70
2022-11-22T14:40:06.711Z,7.80
2022-11-22T14:42:36.498Z,7.72
2022-11-22T14:45:11.830Z,8.23
2022-11-22T14:47:47.598Z,7.88
2022-11-22T14:50:22.171Z,9.88
2022-11-22T14:52:49.594Z,10.00
2022-11-22T14:55:26.247Z,9.80
2022-11-22T14:58:00.712Z,8.43
2022-11-22T15:00:55.852Z,7.20
2022-11-22T15:03:43.251Z,5.53
2022-11-22T15:09:14.436Z,9.32
2022-11-22T15:09:46.659Z,6.38
2022-11-22T15:12:12.543Z,7.93
2022-11-22T15:14:56.640Z,7.15
2022-11-22T15:57:44.674Z,7.20
2022-11-22T16:00:29.583Z,6.65
2022-11-22T16:02:58.350Z,6.10
2022-11-22T16:06:10.132Z,6.65
2022-11-22T16:08:32.938Z,6.80
2022-11-22T16:11:00.038Z,6.82
2022-11-22T16:13:29.428Z,5.93
2022-11-22T16:16:12.705Z,7.50
2022-11-22T16:18:40.512Z,6.07
2022-11-22T16:21:21.464Z,8.65
2022-11-22T16:24:07.163Z,5.90
2022-11-22T16:26:33.752Z,7.00
2022-11-22T16:29:26.287Z,6.70
2022-11-22T16:32:13.959Z,7.75
2022-11-22T16:34:44.316Z,8.15
2022-11-22T16:37:36.396Z,10.20
2022-11-22T16:40:06.120Z,6.68
2022-11-22T16:42:33.152Z,9.65
2022-11-22T16:45:04.051Z,8.85
2022-11-22T16:47:31.111Z,9.68
2022-11-22T16:49:57.747Z,8.43
2022-11-22T16:52:25.065Z,9.73
2022-11-22T16:54:51.615Z,7.53
2022-11-22T16:57:18.282Z,8.52
2022-11-22T16:59:44.921Z,7.57
2022-11-22T17:02:14.167Z,9.20
2022-11-22T17:04:41.390Z,7.75
2022-11-22T17:07:11.899Z,7.95
2022-11-22T17:09:38.673Z,9.75
2022-11-22T17:12:19.717Z,8.05
2022-11-22T17:14:48.466Z,8.77
2022-11-22T17:17:15.187Z,8.07
2022-11-22T17:19:57.019Z,9.00
2022-11-22T17:22:23.586Z,9.15
2022-11-22T17:24:50.088Z,8.82
2022-11-22T17:27:16.590Z,8.82
2022-11-22T17:29:50.468Z,9.88
2022-11-22T17:32:17.724Z,7.68
2022-11-22T17:34:44.267Z,10.05
2022-11-22T17:37:12.549Z,9.25
2022-11-22T17:39:39.814Z,10.30
2022-11-22T17:42:06.782Z,10.32
2022-11-22T17:44:34.203Z,8.48
2022-11-22T17:47:01.034Z,9.70
2022-11-22T17:49:28.559Z,9.77
2022-11-22T17:51:55.496Z,9.23
2022-11-22T17:54:22.130Z,8.30
2022-11-22T17:56:48.712Z,10.05
2022-11-22T17:59:15.235Z,8.93
2022-11-22T18:01:43.188Z,7.80
2022-11-22T18:04:10.156Z,9.20
2022-11-22T18:06:36.771Z,9.48
2022-11-22T18:09:03.484Z,8.30
2022-11-22T18:11:30.307Z,8.10
2022-11-22T18:13:56.835Z,9.73
2022-11-22T18:16:28.346Z,11.38
2022-11-22T18:18:59.045Z,8.13
2022-11-22T18:21:29.213Z,6.30
2022-11-22T18:23:57.645Z,6.57
2022-11-22T18:26:38.890Z,8.73
2022-11-22T18:31:54.290Z,10.88
2022-11-22T18:34:22.098Z,11.10
2022-11-22T18:37:00.723Z,8.60
2022-11-22T18:39:28.906Z,7.35
2022-11-22T18:41:55.677Z,8.63
2022-11-22T18:44:22.200Z,8.65
2022-11-22T18:46:48.832Z,6.72
2022-11-22T18:49:15.698Z,10.18
2022-11-22T18:51:42.393Z,7.57
2022-11-22T18:54:10.427Z,6.68
2022-11-22T18:56:37.966Z,6.30
2022-11-22T18:59:06.259Z,6.47
2022-11-22T19:01:34.666Z,6.68
2022-11-22T19:04:02.032Z,7.05
2022-11-22T19:06:28.983Z,6.93
2022-11-22T19:08:55.557Z,6.22
2022-11-22T19:11:22.217Z,6.05
2022-11-22T19:13:49.105Z,7.13
2022-11-22T19:16:18.428Z,6.05
2022-11-22T19:18:45.452Z,6.20
2022-11-22T19:21:17.836Z,9.70
2022-11-22T19:23:44.588Z,8.23
2022-11-22T19:26:14.327Z,7.85
2022-11-22T19:28:41.672Z,8.25
2022-11-22T19:31:14.630Z,8.57
2022-11-22T19:33:41.238Z,7.60
2022-11-22T19:36:14.364Z,7.30
2022-11-22T19:38:41.896Z,7.80
2022-11-22T19:41:20.449Z,6.72
2022-11-22T19:43:48.375Z,8.52
2022-11-22T19:46:15.567Z,8.07
2022-11-22T19:48:46.895Z,8.90
2022-11-22T19:51:15.603Z,7.07
2022-11-22T19:53:42.876Z,10.20
2022-11-22T19:56:19.464Z,11.70
2022-11-22T19:58:54.176Z,10.07
2022-11-22T20:01:23.170Z,8.75
2022-11-22T20:03:58.363Z,5.75
2022-11-22T20:06:25.446Z,5.07
2022-11-22T20:08:52.153Z,7.70
2022-11-22T20:11:21.044Z,6.95
2022-11-22T20:13:50.305Z,9.13
2022-11-22T20:16:23.280Z,7.53
2022-11-22T20:19:09.571Z,7.80
2022-11-22T20:21:38.709Z,9.32
2022-11-22T20:24:06.555Z,9.13
2022-11-22T20:26:33.718Z,11.93
2022-11-22T20:29:03.312Z,10.55
2022-11-22T20:31:31.528Z,10.23
2022-11-22T20:33:59.564Z,9.18
2022-11-22T20:36:31.822Z,10.10
2022-11-22T20:38:58.708Z,9.00
2022-11-22T20:41:27.594Z,9.40
2022-11-22T20:43:55.414Z,9.93
2022-11-22T20:46:24.760Z,7.00
2022-11-22T20:48:55.825Z,7.85
2022-11-22T20:51:24.620Z,8.90
2022-11-22T20:53:51.664Z,7.65
2022-11-22T20:56:19.213Z,8.77
2022-11-22T20:58:46.076Z,6.53
2022-11-22T21:01:18.324Z,6.82
2022-11-22T21:03:45.312Z,5.93
2022-11-22T21:06:13.275Z,7.43
2022-11-22T21:08:40.078Z,6.80
2022-11-22T21:11:17.879Z,8.00
2022-11-22T21:13:45.627Z,6.50
2022-11-22T21:16:25.045Z,6.47
2022-11-22T21:18:58.020Z,7.45
2022-11-22T21:21:25.725Z,8.93
2022-11-22T21:23:56.647Z,7.68
2022-11-22T21:26:24.855Z,7.97
2022-11-22T21:28:52.789Z,7.95
2022-11-22T21:31:20.540Z,8.35
2022-11-22T21:33:47.508Z,7.30
2022-11-22T21:36:14.625Z,6.85
2022-11-22T21:38:41.266Z,7.82
2022-11-22T21:43:59.512Z,7.72
2022-11-22T21:46:26.186Z,8.32
2022-11-22T21:48:55.657Z,7.72
2022-11-22T21:51:23.160Z,8.18
2022-11-22T21:53:49.662Z,6.65
2022-11-22T21:56:16.171Z,8.45
2022-11-22T21:58:43.037Z,7.07
2022-11-22T22:01:14.070Z,7.97
2022-11-22T22:03:41.088Z,7.50
2022-11-22T22:06:07.722Z,5.93
2022-11-22T22:08:34.388Z,6.32
2022-11-22T22:11:02.558Z,5.35
2022-11-22T22:13:30.917Z,5.68
2022-11-22T22:15:59.292Z,5.38
2022-11-22T22:18:33.402Z,6.80
2022-11-22T22:21:01.424Z,6.70
2022-11-22T22:23:28.533Z,6.85
2022-11-22T22:26:00.048Z,7.20
2022-11-22T22:28:34.626Z,6.65
2022-11-22T22:31:17.195Z,6.28
2022-11-22T22:33:45.622Z,6.22
2022-11-22T22:36:12.239Z,5.57
2022-11-22T22:38:39.174Z,6.28
2022-11-22T22:41:07.455Z,7.65
2022-11-22T22:43:37.164Z,6.65
2022-11-22T22:46:06.613Z,5.35
2022-11-22T22:48:34.308Z,6.05
2022-11-22T22:51:21.749Z,7.72
2022-11-22T22:53:48.634Z,5.95
2022-11-22T22:56:19.392Z,4.95
2022-11-22T22:58:46.081Z,6.55
2022-11-22T23:01:21.442Z,7.43
2022-11-22T23:03:57.263Z,4.18
2022-11-22T23:06:25.338Z,5.43
2022-11-22T23:08:53.393Z,5.72
2022-11-22T23:11:42.945Z,5.28
2022-11-22T23:14:09.757Z,5.32
2022-11-22T23:16:38.221Z,5.15
2022-11-22T23:19:05.634Z,5.80
2022-11-22T23:21:32.362Z,5.30
2022-11-22T23:23:58.990Z,6.80
2022-11-22T23:26:25.628Z,5.35
2022-11-22T23:28:53.493Z,7.63
2022-11-22T23:31:20.837Z,6.63
2022-11-22T23:33:47.837Z,6.43
2022-11-22T23:36:16.702Z,7.72
2022-11-22T23:38:43.784Z,7.40
2022-11-22T23:41:14.511Z,5.05
2022-11-22T23:43:41.869Z,7.65
2022-11-22T23:46:16.092Z,6.35
2022-11-22T23:48:44.311Z,7.38
2022-11-22T23:51:11.295Z,5.95
2022-11-22T23:53:38.164Z,6.82
2022-11-22T23:56:10.126Z,7.32
2022-11-22T23:58:37.169Z,5.22
